sensor_id;sensor_type;location;lat;lon;timestamp;P1;durP1;ratioP1;P2;durP2;ratioP2
3811;SDS011;1921;49.368;11.068;2023-05-21T00:01:12;66.60;;;55.10;;
3811;SDS011;1921;49.368;11.068;2023-05-21T00:03:40;65.70;;;54.50;;
3811;SDS011;1921;49.368;11.068;2023-05-21T00:06:09;61.07;;;53.23;;
3811;SDS011;1921;49.368;11.068;2023-05-21T00:08:39;62.80;;;54.30;;
3811;SDS011;1921;49.368;11.068;2023-05-21T00:11:06;62.87;;;54.07;;
3811;SDS011;1921;49.368;11.068;2023-05-21T00:13:32;63.67;;;52.80;;
3811;SDS011;1921;49.368;11.068;2023-05-21T00:15:58;65.67;;;54.90;;
3811;SDS011;1921;49.368;11.068;2023-05-21T00:18:23;63.00;;;54.70;;
3811;SDS011;1921;49.368;11.068;2023-05-21T00:20:49;61.00;;;53.23;;
3811;SDS011;1921;49.368;11.068;2023-05-21T00:23:16;58.93;;;51.43;;
3811;SDS011;1921;49.368;11.068;2023-05-21T00:25:43;64.30;;;54.07;;
3811;SDS011;1921;49.368;11.068;2023-05-21T00:28:10;67.57;;;53.60;;
3811;SDS011;1921;49.368;11.068;2023-05-21T00:30:36;64.55;;;54.58;;
3811;SDS011;1921;49.368;11.068;2023-05-21T00:33:02;65.13;;;53.77;;
3811;SDS011;1921;49.368;11.068;2023-05-21T00:35:28;66.43;;;54.30;;
3811;SDS011;1921;49.368;11.068;2023-05-21T00:37:54;61.72;;;53.42;;
3811;SDS011;1921;49.368;11.068;2023-05-21T00:40:20;62.67;;;53.97;;
3811;SDS011;1921;49.368;11.068;2023-05-21T00:42:46;62.63;;;53.17;;
3811;SDS011;1921;49.368;11.068;2023-05-21T00:45:12;65.60;;;55.43;;
3811;SDS011;1921;49.368;11.068;2023-05-21T00:47:40;58.77;;;51.33;;
3811;SDS011;1921;49.368;11.068;2023-05-21T00:50:07;60.10;;;52.23;;
3811;SDS011;1921;49.368;11.068;2023-05-21T00:52:34;63.30;;;54.38;;
3811;SDS011;1921;49.368;11.068;2023-05-21T00:55:06;63.00;;;53.90;;
3811;SDS011;1921;49.368;11.068;2023-05-21T00:57:34;64.53;;;55.10;;
3811;SDS011;1921;49.368;11.068;2023-05-21T01:00:01;64.67;;;54.63;;
3811;SDS011;1921;49.368;11.068;2023-05-21T01:02:31;62.80;;;53.97;;
3811;SDS011;1921;49.368;11.068;2023-05-21T01:04:58;60.90;;;52.00;;
3811;SDS011;1921;49.368;11.068;2023-05-21T01:07:24;61.87;;;53.70;;
3811;SDS011;1921;49.368;11.068;2023-05-21T01:09:50;63.70;;;54.77;;
3811;SDS011;1921;49.368;11.068;2023-05-21T01:12:16;64.80;;;54.57;;
3811;SDS011;1921;49.368;11.068;2023-05-21T01:14:43;61.83;;;53.50;;
3811;SDS011;1921;49.368;11.068;2023-05-21T01:17:09;59.80;;;51.72;;
3811;SDS011;1921;49.368;11.068;2023-05-21T01:19:36;62.08;;;53.65;;
3811;SDS011;1921;49.368;11.068;2023-05-21T01:22:04;65.03;;;54.70;;
3811;SDS011;1921;49.368;11.068;2023-05-21T01:24:31;60.13;;;52.27;;
3811;SDS011;1921;49.368;11.068;2023-05-21T01:26:59;59.57;;;51.50;;
3811;SDS011;1921;49.368;11.068;2023-05-21T01:29:26;66.97;;;55.00;;
3811;SDS011;1921;49.368;11.068;2023-05-21T01:31:56;61.50;;;53.27;;
3811;SDS011;1921;49.368;11.068;2023-05-21T01:34:55;64.40;;;52.07;;
3811;SDS011;1921;49.368;11.068;2023-05-21T01:37:54;60.77;;;50.57;;
3811;SDS011;1921;49.368;11.068;2023-05-21T01:43:05;59.30;;;51.23;;
3811;SDS011;1921;49.368;11.068;2023-05-21T01:45:32;67.70;;;55.25;;
3811;SDS011;1921;49.368;11.068;2023-05-21T01:48:00;64.43;;;55.33;;
3811;SDS011;1921;49.368;11.068;2023-05-21T01:50:27;60.10;;;51.60;;
3811;SDS011;1921;49.368;11.068;2023-05-21T01:52:55;65.40;;;52.40;;
3811;SDS011;1921;49.368;11.068;2023-05-21T01:55:22;63.13;;;54.10;;
3811;SDS011;1921;49.368;11.068;2023-05-21T01:57:49;62.13;;;54.20;;
3811;SDS011;1921;49.368;11.068;2023-05-21T02:00:17;63.92;;;54.10;;
3811;SDS011;1921;49.368;11.068;2023-05-21T02:02:47;63.97;;;53.20;;
3811;SDS011;1921;49.368;11.068;2023-05-21T02:05:13;57.67;;;50.90;;
3811;SDS011;1921;49.368;11.068;2023-05-21T02:07:40;56.25;;;49.65;;
3811;SDS011;1921;49.368;11.068;2023-05-21T02:10:07;62.90;;;53.55;;
3811;SDS011;1921;49.368;11.068;2023-05-21T02:12:34;62.90;;;52.57;;
3811;SDS011;1921;49.368;11.068;2023-05-21T02:14:59;64.50;;;54.10;;
3811;SDS011;1921;49.368;11.068;2023-05-21T02:17:27;60.93;;;51.50;;
3811;SDS011;1921;49.368;11.068;2023-05-21T02:19:57;62.43;;;53.87;;
3811;SDS011;1921;49.368;11.068;2023-05-21T02:22:35;63.80;;;54.57;;
3811;SDS011;1921;49.368;11.068;2023-05-21T02:25:03;63.93;;;53.83;;
3811;SDS011;1921;49.368;11.068;2023-05-21T02:27:33;63.10;;;54.50;;
3811;SDS011;1921;49.368;11.068;2023-05-21T02:30:05;63.97;;;54.87;;
3811;SDS011;1921;49.368;11.068;2023-05-21T02:32:34;62.40;;;53.93;;
3811;SDS011;1921;49.368;11.068;2023-05-21T02:35:01;65.33;;;54.90;;
3811;SDS011;1921;49.368;11.068;2023-05-21T02:37:28;67.53;;;54.37;;
3811;SDS011;1921;49.368;11.068;2023-05-21T02:39:59;61.07;;;53.27;;
3811;SDS011;1921;49.368;11.068;2023-05-21T02:42:28;65.83;;;54.47;;
3811;SDS011;1921;49.368;11.068;2023-05-21T02:44:54;63.28;;;53.92;;
3811;SDS011;1921;49.368;11.068;2023-05-21T02:47:20;70.40;;;54.43;;
3811;SDS011;1921;49.368;11.068;2023-05-21T02:49:48;62.00;;;53.70;;
3811;SDS011;1921;49.368;11.068;2023-05-21T02:52:15;64.10;;;54.60;;
3811;SDS011;1921;49.368;11.068;2023-05-21T02:54:50;66.30;;;55.33;;
3811;SDS011;1921;49.368;11.068;2023-05-21T02:57:16;61.70;;;53.20;;
3811;SDS011;1921;49.368;11.068;2023-05-21T02:59:42;66.30;;;54.20;;
3811;SDS011;1921;49.368;11.068;2023-05-21T03:02:09;66.60;;;54.20;;
3811;SDS011;1921;49.368;11.068;2023-05-21T03:04:35;65.67;;;54.33;;
3811;SDS011;1921;49.368;11.068;2023-05-21T03:07:02;61.37;;;53.80;;
3811;SDS011;1921;49.368;11.068;2023-05-21T03:09:29;65.22;;;54.20;;
3811;SDS011;1921;49.368;11.068;2023-05-21T03:11:55;68.40;;;54.33;;
3811;SDS011;1921;49.368;11.068;2023-05-21T03:14:21;64.67;;;54.47;;
3811;SDS011;1921;49.368;11.068;2023-05-21T03:16:48;62.37;;;54.10;;
3811;SDS011;1921;49.368;11.068;2023-05-21T03:19:15;63.97;;;54.40;;
3811;SDS011;1921;49.368;11.068;2023-05-21T03:21:41;63.30;;;54.60;;
3811;SDS011;1921;49.368;11.068;2023-05-21T03:24:07;66.40;;;54.73;;
3811;SDS011;1921;49.368;11.068;2023-05-21T03:26:33;64.47;;;54.88;;
3811;SDS011;1921;49.368;11.068;2023-05-21T03:28:59;64.77;;;55.07;;
3811;SDS011;1921;49.368;11.068;2023-05-21T03:31:25;63.80;;;54.17;;
3811;SDS011;1921;49.368;11.068;2023-05-21T03:33:51;64.57;;;54.30;;
3811;SDS011;1921;49.368;11.068;2023-05-21T03:36:17;63.53;;;54.77;;
3811;SDS011;1921;49.368;11.068;2023-05-21T03:38:43;62.57;;;53.67;;
3811;SDS011;1921;49.368;11.068;2023-05-21T03:41:10;67.10;;;54.63;;
3811;SDS011;1921;49.368;11.068;2023-05-21T03:43:36;63.60;;;54.70;;
3811;SDS011;1921;49.368;11.068;2023-05-21T03:46:02;62.10;;;54.07;;
3811;SDS011;1921;49.368;11.068;2023-05-21T03:48:28;63.30;;;54.53;;
3811;SDS011;1921;49.368;11.068;2023-05-21T03:50:53;66.30;;;55.20;;
3811;SDS011;1921;49.368;11.068;2023-05-21T03:53:20;63.37;;;54.50;;
3811;SDS011;1921;49.368;11.068;2023-05-21T03:55:45;63.63;;;53.60;;
3811;SDS011;1921;49.368;11.068;2023-05-21T03:58:18;66.87;;;54.70;;
3811;SDS011;1921;49.368;11.068;2023-05-21T04:00:48;62.67;;;54.07;;
3811;SDS011;1921;49.368;11.068;2023-05-21T04:03:14;65.33;;;54.03;;
3811;SDS011;1921;49.368;11.068;2023-05-21T04:05:43;62.17;;;54.00;;
3811;SDS011;1921;49.368;11.068;2023-05-21T04:08:09;64.47;;;54.50;;
3811;SDS011;1921;49.368;11.068;2023-05-21T04:10:34;62.57;;;53.60;;
3811;SDS011;1921;49.368;11.068;2023-05-21T04:13:00;66.37;;;55.27;;
3811;SDS011;1921;49.368;11.068;2023-05-21T04:15:26;64.40;;;54.40;;
3811;SDS011;1921;49.368;11.068;2023-05-21T04:17:52;63.47;;;54.60;;
3811;SDS011;1921;49.368;11.068;2023-05-21T04:20:18;63.40;;;54.30;;
3811;SDS011;1921;49.368;11.068;2023-05-21T04:22:45;63.40;;;54.80;;
3811;SDS011;1921;49.368;11.068;2023-05-21T04:25:10;63.90;;;54.93;;
3811;SDS011;1921;49.368;11.068;2023-05-21T04:27:36;64.73;;;55.77;;
3811;SDS011;1921;49.368;11.068;2023-05-21T04:30:02;67.13;;;55.50;;
3811;SDS011;1921;49.368;11.068;2023-05-21T04:32:29;63.07;;;54.27;;
3811;SDS011;1921;49.368;11.068;2023-05-21T04:34:57;62.80;;;54.40;;
3811;SDS011;1921;49.368;11.068;2023-05-21T04:37:25;66.80;;;55.63;;
3811;SDS011;1921;49.368;11.068;2023-05-21T04:39:55;64.40;;;55.70;;
3811;SDS011;1921;49.368;11.068;2023-05-21T04:42:22;65.33;;;55.27;;
3811;SDS011;1921;49.368;11.068;2023-05-21T04:44:50;66.73;;;56.00;;
3811;SDS011;1921;49.368;11.068;2023-05-21T04:47:16;64.10;;;55.30;;
3811;SDS011;1921;49.368;11.068;2023-05-21T04:49:44;68.70;;;57.05;;
3811;SDS011;1921;49.368;11.068;2023-05-21T04:52:14;65.93;;;55.53;;
3811;SDS011;1921;49.368;11.068;2023-05-21T04:54:40;63.50;;;54.53;;
3811;SDS011;1921;49.368;11.068;2023-05-21T04:57:07;64.73;;;55.10;;
3811;SDS011;1921;49.368;11.068;2023-05-21T04:59:33;66.17;;;55.03;;
3811;SDS011;1921;49.368;11.068;2023-05-21T05:01:59;68.67;;;54.90;;
3811;SDS011;1921;49.368;11.068;2023-05-21T05:04:25;66.70;;;55.70;;
3811;SDS011;1921;49.368;11.068;2023-05-21T05:06:51;66.80;;;56.00;;
3811;SDS011;1921;49.368;11.068;2023-05-21T05:09:17;68.27;;;56.23;;
3811;SDS011;1921;49.368;11.068;2023-05-21T05:11:45;67.70;;;55.73;;
3811;SDS011;1921;49.368;11.068;2023-05-21T05:14:11;73.57;;;55.87;;
3811;SDS011;1921;49.368;11.068;2023-05-21T05:16:36;65.25;;;54.83;;
3811;SDS011;1921;49.368;11.068;2023-05-21T05:19:02;67.70;;;55.33;;
3811;SDS011;1921;49.368;11.068;2023-05-21T05:21:28;67.37;;;56.23;;
3811;SDS011;1921;49.368;11.068;2023-05-21T05:23:53;69.80;;;56.73;;
3811;SDS011;1921;49.368;11.068;2023-05-21T05:26:19;66.50;;;55.90;;
3811;SDS011;1921;49.368;11.068;2023-05-21T05:28:45;68.90;;;56.13;;
3811;SDS011;1921;49.368;11.068;2023-05-21T05:31:11;67.77;;;56.57;;
3811;SDS011;1921;49.368;11.068;2023-05-21T05:33:36;70.17;;;57.30;;
3811;SDS011;1921;49.368;11.068;2023-05-21T05:36:02;70.93;;;56.92;;
3811;SDS011;1921;49.368;11.068;2023-05-21T05:38:28;67.90;;;56.60;;
3811;SDS011;1921;49.368;11.068;2023-05-21T05:40:55;64.53;;;55.40;;
3811;SDS011;1921;49.368;11.068;2023-05-21T05:43:20;70.22;;;56.13;;
3811;SDS011;1921;49.368;11.068;2023-05-21T05:45:46;71.17;;;56.50;;
3811;SDS011;1921;49.368;11.068;2023-05-21T05:48:12;69.70;;;56.43;;
3811;SDS011;1921;49.368;11.068;2023-05-21T05:50:37;66.47;;;55.93;;
3811;SDS011;1921;49.368;11.068;2023-05-21T05:53:03;69.00;;;56.40;;
3811;SDS011;1921;49.368;11.068;2023-05-21T05:55:29;67.97;;;56.17;;
3811;SDS011;1921;49.368;11.068;2023-05-21T05:57:55;70.20;;;55.47;;
3811;SDS011;1921;49.368;11.068;2023-05-21T06:00:21;72.77;;;55.93;;
3811;SDS011;1921;49.368;11.068;2023-05-21T06:02:47;70.50;;;56.93;;
3811;SDS011;1921;49.368;11.068;2023-05-21T06:05:12;70.87;;;56.53;;
3811;SDS011;1921;49.368;11.068;2023-05-21T06:07:38;68.90;;;56.80;;
3811;SDS011;1921;49.368;11.068;2023-05-21T06:10:05;71.07;;;55.87;;
3811;SDS011;1921;49.368;11.068;2023-05-21T06:12:32;69.22;;;56.22;;
3811;SDS011;1921;49.368;11.068;2023-05-21T06:14:57;69.70;;;56.20;;
3811;SDS011;1921;49.368;11.068;2023-05-21T06:17:24;68.97;;;56.72;;
3811;SDS011;1921;49.368;11.068;2023-05-21T06:19:50;74.38;;;56.97;;
3811;SDS011;1921;49.368;11.068;2023-05-21T06:22:15;70.23;;;56.67;;
3811;SDS011;1921;49.368;11.068;2023-05-21T06:24:43;68.63;;;57.40;;
3811;SDS011;1921;49.368;11.068;2023-05-21T06:27:09;69.00;;;55.30;;
3811;SDS011;1921;49.368;11.068;2023-05-21T06:29:35;71.38;;;57.40;;
3811;SDS011;1921;49.368;11.068;2023-05-21T06:32:01;65.77;;;54.90;;
3811;SDS011;1921;49.368;11.068;2023-05-21T06:34:28;68.70;;;55.13;;
3811;SDS011;1921;49.368;11.068;2023-05-21T06:36:54;68.20;;;56.03;;
3811;SDS011;1921;49.368;11.068;2023-05-21T06:39:20;71.77;;;57.50;;
3811;SDS011;1921;49.368;11.068;2023-05-21T06:41:46;70.17;;;55.00;;
3811;SDS011;1921;49.368;11.068;2023-05-21T06:44:11;69.80;;;57.00;;
3811;SDS011;1921;49.368;11.068;2023-05-21T06:46:37;71.60;;;56.50;;
3811;SDS011;1921;49.368;11.068;2023-05-21T06:49:03;68.53;;;55.47;;
3811;SDS011;1921;49.368;11.068;2023-05-21T06:51:30;68.60;;;56.25;;
3811;SDS011;1921;49.368;11.068;2023-05-21T06:53:56;67.07;;;55.37;;
3811;SDS011;1921;49.368;11.068;2023-05-21T06:56:22;72.33;;;57.80;;
3811;SDS011;1921;49.368;11.068;2023-05-21T06:58:48;68.67;;;55.90;;
3811;SDS011;1921;49.368;11.068;2023-05-21T07:01:13;66.27;;;55.23;;
3811;SDS011;1921;49.368;11.068;2023-05-21T07:03:40;81.13;;;56.30;;
3811;SDS011;1921;49.368;11.068;2023-05-21T07:06:06;66.00;;;54.73;;
3811;SDS011;1921;49.368;11.068;2023-05-21T07:08:31;67.00;;;55.70;;
3811;SDS011;1921;49.368;11.068;2023-05-21T07:10:57;66.80;;;55.10;;
3811;SDS011;1921;49.368;11.068;2023-05-21T07:13:23;65.37;;;54.70;;
3811;SDS011;1921;49.368;11.068;2023-05-21T07:15:49;66.37;;;54.40;;
3811;SDS011;1921;49.368;11.068;2023-05-21T07:18:15;69.23;;;55.53;;
3811;SDS011;1921;49.368;11.068;2023-05-21T07:20:40;65.93;;;55.43;;
3811;SDS011;1921;49.368;11.068;2023-05-21T07:23:06;69.82;;;55.90;;
3811;SDS011;1921;49.368;11.068;2023-05-21T07:25:33;67.17;;;55.10;;
3811;SDS011;1921;49.368;11.068;2023-05-21T07:27:59;68.30;;;56.40;;
3811;SDS011;1921;49.368;11.068;2023-05-21T07:30:24;66.80;;;54.57;;
3811;SDS011;1921;49.368;11.068;2023-05-21T07:32:50;65.67;;;55.53;;
3811;SDS011;1921;49.368;11.068;2023-05-21T07:35:16;66.50;;;55.53;;
3811;SDS011;1921;49.368;11.068;2023-05-21T07:37:42;67.30;;;55.20;;
3811;SDS011;1921;49.368;11.068;2023-05-21T07:40:08;68.07;;;56.33;;
3811;SDS011;1921;49.368;11.068;2023-05-21T07:42:34;66.88;;;55.20;;
3811;SDS011;1921;49.368;11.068;2023-05-21T07:45:00;66.57;;;55.43;;
3811;SDS011;1921;49.368;11.068;2023-05-21T07:47:26;69.20;;;55.47;;
3811;SDS011;1921;49.368;11.068;2023-05-21T07:49:52;73.32;;;56.95;;
3811;SDS011;1921;49.368;11.068;2023-05-21T07:52:17;67.80;;;55.50;;
3811;SDS011;1921;49.368;11.068;2023-05-21T07:54:43;69.20;;;56.13;;
3811;SDS011;1921;49.368;11.068;2023-05-21T07:57:09;69.30;;;56.23;;
3811;SDS011;1921;49.368;11.068;2023-05-21T07:59:35;69.40;;;55.40;;
3811;SDS011;1921;49.368;11.068;2023-05-21T08:02:00;68.00;;;56.00;;
3811;SDS011;1921;49.368;11.068;2023-05-21T08:04:26;69.63;;;56.20;;
3811;SDS011;1921;49.368;11.068;2023-05-21T08:06:52;74.20;;;55.90;;
3811;SDS011;1921;49.368;11.068;2023-05-21T08:09:17;69.63;;;56.63;;
3811;SDS011;1921;49.368;11.068;2023-05-21T08:11:44;68.87;;;55.67;;
3811;SDS011;1921;49.368;11.068;2023-05-21T08:14:10;69.13;;;56.63;;
3811;SDS011;1921;49.368;11.068;2023-05-21T08:16:38;70.63;;;54.80;;
3811;SDS011;1921;49.368;11.068;2023-05-21T08:19:04;68.60;;;56.53;;
3811;SDS011;1921;49.368;11.068;2023-05-21T08:21:30;73.15;;;57.08;;
3811;SDS011;1921;49.368;11.068;2023-05-21T08:23:56;70.73;;;56.30;;
3811;SDS011;1921;49.368;11.068;2023-05-21T08:26:24;70.10;;;57.03;;
3811;SDS011;1921;49.368;11.068;2023-05-21T08:28:50;72.33;;;56.63;;
3811;SDS011;1921;49.368;11.068;2023-05-21T08:31:19;72.80;;;56.40;;
3811;SDS011;1921;49.368;11.068;2023-05-21T08:33:51;71.97;;;57.20;;
3811;SDS011;1921;49.368;11.068;2023-05-21T08:36:18;70.50;;;56.37;;
3811;SDS011;1921;49.368;11.068;2023-05-21T08:38:44;73.63;;;57.13;;
3811;SDS011;1921;49.368;11.068;2023-05-21T08:41:10;71.87;;;57.30;;
3811;SDS011;1921;49.368;11.068;2023-05-21T08:43:38;70.60;;;56.07;;
3811;SDS011;1921;49.368;11.068;2023-05-21T08:46:04;71.90;;;57.77;;
3811;SDS011;1921;49.368;11.068;2023-05-21T08:48:32;70.25;;;56.90;;
3811;SDS011;1921;49.368;11.068;2023-05-21T08:51:00;70.13;;;56.37;;
3811;SDS011;1921;49.368;11.068;2023-05-21T08:53:26;75.17;;;57.90;;
3811;SDS011;1921;49.368;11.068;2023-05-21T08:55:52;72.90;;;57.60;;
3811;SDS011;1921;49.368;11.068;2023-05-21T08:58:22;73.60;;;58.47;;
3811;SDS011;1921;49.368;11.068;2023-05-21T09:00:48;78.10;;;56.00;;
3811;SDS011;1921;49.368;11.068;2023-05-21T09:03:14;68.20;;;55.90;;
3811;SDS011;1921;49.368;11.068;2023-05-21T09:05:41;73.60;;;56.10;;
3811;SDS011;1921;49.368;11.068;2023-05-21T09:08:17;70.80;;;55.50;;
3811;SDS011;1921;49.368;11.068;2023-05-21T09:10:50;69.43;;;56.40;;
3811;SDS011;1921;49.368;11.068;2023-05-21T09:13:16;70.93;;;56.83;;
3811;SDS011;1921;49.368;11.068;2023-05-21T09:15:44;70.20;;;56.87;;
3811;SDS011;1921;49.368;11.068;2023-05-21T09:18:11;71.77;;;57.07;;
3811;SDS011;1921;49.368;11.068;2023-05-21T09:20:38;69.53;;;56.00;;
3811;SDS011;1921;49.368;11.068;2023-05-21T09:23:04;71.80;;;56.00;;
3811;SDS011;1921;49.368;11.068;2023-05-21T09:25:36;70.10;;;56.50;;
3811;SDS011;1921;49.368;11.068;2023-05-21T09:28:03;72.50;;;57.43;;
3811;SDS011;1921;49.368;11.068;2023-05-21T09:30:35;71.07;;;56.67;;
3811;SDS011;1921;49.368;11.068;2023-05-21T09:33:01;71.03;;;57.43;;
3811;SDS011;1921;49.368;11.068;2023-05-21T09:35:27;69.70;;;56.65;;
3811;SDS011;1921;49.368;11.068;2023-05-21T09:37:53;71.43;;;57.33;;
3811;SDS011;1921;49.368;11.068;2023-05-21T09:40:21;72.53;;;57.40;;
3811;SDS011;1921;49.368;11.068;2023-05-21T09:42:48;70.20;;;57.00;;
3811;SDS011;1921;49.368;11.068;2023-05-21T09:45:25;72.70;;;57.53;;
3811;SDS011;1921;49.368;11.068;2023-05-21T09:47:52;69.40;;;55.97;;
3811;SDS011;1921;49.368;11.068;2023-05-21T09:50:23;72.07;;;57.08;;
3811;SDS011;1921;49.368;11.068;2023-05-21T09:52:54;72.53;;;57.75;;
3811;SDS011;1921;49.368;11.068;2023-05-21T09:55:24;72.10;;;56.60;;
3811;SDS011;1921;49.368;11.068;2023-05-21T09:57:51;73.50;;;56.67;;
3811;SDS011;1921;49.368;11.068;2023-05-21T10:00:24;70.37;;;56.60;;
3811;SDS011;1921;49.368;11.068;2023-05-21T10:02:56;70.87;;;56.30;;
3811;SDS011;1921;49.368;11.068;2023-05-21T10:05:25;72.43;;;57.00;;
3811;SDS011;1921;49.368;11.068;2023-05-21T10:07:58;70.37;;;56.63;;
3811;SDS011;1921;49.368;11.068;2023-05-21T10:10:26;73.00;;;57.23;;
3811;SDS011;1921;49.368;11.068;2023-05-21T10:12:54;69.57;;;56.77;;
3811;SDS011;1921;49.368;11.068;2023-05-21T10:15:34;71.25;;;56.38;;
3811;SDS011;1921;49.368;11.068;2023-05-21T10:18:07;70.03;;;56.13;;
3811;SDS011;1921;49.368;11.068;2023-05-21T10:20:35;71.37;;;57.60;;
3811;SDS011;1921;49.368;11.068;2023-05-21T10:23:01;71.40;;;57.30;;
3811;SDS011;1921;49.368;11.068;2023-05-21T10:25:27;72.90;;;57.17;;
3811;SDS011;1921;49.368;11.068;2023-05-21T10:27:54;72.75;;;57.30;;
3811;SDS011;1921;49.368;11.068;2023-05-21T10:30:22;71.30;;;56.67;;
3811;SDS011;1921;49.368;11.068;2023-05-21T10:32:49;72.00;;;56.30;;
3811;SDS011;1921;49.368;11.068;2023-05-21T10:35:15;71.87;;;56.70;;
3811;SDS011;1921;49.368;11.068;2023-05-21T10:37:45;72.90;;;57.33;;
3811;SDS011;1921;49.368;11.068;2023-05-21T10:40:11;71.07;;;57.03;;
3811;SDS011;1921;49.368;11.068;2023-05-21T10:42:56;70.03;;;57.00;;
3811;SDS011;1921;49.368;11.068;2023-05-21T10:48:54;70.87;;;57.00;;
3811;SDS011;1921;49.368;11.068;2023-05-21T11:00:38;71.77;;;56.67;;
3811;SDS011;1921;49.368;11.068;2023-05-21T11:03:05;74.30;;;55.30;;
3811;SDS011;1921;49.368;11.068;2023-05-21T11:05:51;70.47;;;56.60;;
3811;SDS011;1921;49.368;11.068;2023-05-21T11:10:56;71.43;;;56.73;;
3811;SDS011;1921;49.368;11.068;2023-05-21T11:13:23;75.70;;;56.20;;
3811;SDS011;1921;49.368;11.068;2023-05-21T11:18:22;72.53;;;57.63;;
3811;SDS011;1921;49.368;11.068;2023-05-21T11:21:08;70.73;;;56.87;;
3811;SDS011;1921;49.368;11.068;2023-05-21T11:23:54;70.50;;;55.57;;
3811;SDS011;1921;49.368;11.068;2023-05-21T11:26:21;68.53;;;54.70;;
3811;SDS011;1921;49.368;11.068;2023-05-21T11:29:11;68.90;;;55.87;;
3811;SDS011;1921;49.368;11.068;2023-05-21T11:31:36;66.63;;;54.80;;
3811;SDS011;1921;49.368;11.068;2023-05-21T11:36:46;71.13;;;55.37;;
3811;SDS011;1921;49.368;11.068;2023-05-21T11:39:14;70.77;;;57.30;;
3811;SDS011;1921;49.368;11.068;2023-05-21T11:41:51;69.83;;;56.77;;
3811;SDS011;1921;49.368;11.068;2023-05-21T11:47:09;69.87;;;55.20;;
3811;SDS011;1921;49.368;11.068;2023-05-21T11:49:37;66.60;;;55.00;;
3811;SDS011;1921;49.368;11.068;2023-05-21T11:52:03;69.97;;;56.37;;
3811;SDS011;1921;49.368;11.068;2023-05-21T11:54:31;71.43;;;56.10;;
3811;SDS011;1921;49.368;11.068;2023-05-21T11:57:05;69.07;;;56.00;;
3811;SDS011;1921;49.368;11.068;2023-05-21T11:59:32;72.77;;;57.07;;
3811;SDS011;1921;49.368;11.068;2023-05-21T12:01:59;71.30;;;55.77;;
3811;SDS011;1921;49.368;11.068;2023-05-21T12:04:29;71.80;;;56.50;;
3811;SDS011;1921;49.368;11.068;2023-05-21T12:07:03;69.63;;;57.00;;
3811;SDS011;1921;49.368;11.068;2023-05-21T12:09:40;71.53;;;56.70;;
3811;SDS011;1921;49.368;11.068;2023-05-21T12:12:09;72.23;;;57.13;;
3811;SDS011;1921;49.368;11.068;2023-05-21T12:14:45;74.73;;;57.60;;
3811;SDS011;1921;49.368;11.068;2023-05-21T12:17:16;72.33;;;57.70;;
3811;SDS011;1921;49.368;11.068;2023-05-21T12:19:44;73.28;;;57.75;;
3811;SDS011;1921;49.368;11.068;2023-05-21T12:22:11;70.43;;;56.20;;
3811;SDS011;1921;49.368;11.068;2023-05-21T12:24:39;87.07;;;57.85;;
3811;SDS011;1921;49.368;11.068;2023-05-21T12:27:05;75.28;;;57.40;;
3811;SDS011;1921;49.368;11.068;2023-05-21T12:29:37;71.57;;;56.57;;
3811;SDS011;1921;49.368;11.068;2023-05-21T12:32:07;72.28;;;56.95;;
3811;SDS011;1921;49.368;11.068;2023-05-21T12:37:16;73.40;;;57.70;;
3811;SDS011;1921;49.368;11.068;2023-05-21T12:39:47;71.37;;;55.97;;
3811;SDS011;1921;49.368;11.068;2023-05-21T12:42:24;71.30;;;56.83;;
3811;SDS011;1921;49.368;11.068;2023-05-21T12:44:55;70.80;;;57.20;;
3811;SDS011;1921;49.368;11.068;2023-05-21T12:47:25;74.57;;;56.53;;
3811;SDS011;1921;49.368;11.068;2023-05-21T12:49:53;75.10;;;57.13;;
3811;SDS011;1921;49.368;11.068;2023-05-21T12:52:22;67.97;;;55.60;;
3811;SDS011;1921;49.368;11.068;2023-05-21T12:54:49;76.60;;;55.37;;
3811;SDS011;1921;49.368;11.068;2023-05-21T12:57:17;70.40;;;56.10;;
3811;SDS011;1921;49.368;11.068;2023-05-21T12:59:51;68.90;;;55.30;;
3811;SDS011;1921;49.368;11.068;2023-05-21T13:02:30;72.10;;;55.90;;
3811;SDS011;1921;49.368;11.068;2023-05-21T13:05:07;68.27;;;56.10;;
3811;SDS011;1921;49.368;11.068;2023-05-21T13:07:35;70.30;;;57.20;;
3811;SDS011;1921;49.368;11.068;2023-05-21T13:10:03;67.70;;;55.07;;
3811;SDS011;1921;49.368;11.068;2023-05-21T13:12:31;71.30;;;56.77;;
3811;SDS011;1921;49.368;11.068;2023-05-21T13:14:58;70.87;;;56.20;;
3811;SDS011;1921;49.368;11.068;2023-05-21T13:17:26;68.10;;;54.60;;
3811;SDS011;1921;49.368;11.068;2023-05-21T13:22:43;69.30;;;56.00;;
3811;SDS011;1921;49.368;11.068;2023-05-21T13:25:17;69.88;;;56.47;;
3811;SDS011;1921;49.368;11.068;2023-05-21T13:27:45;71.82;;;57.38;;
3811;SDS011;1921;49.368;11.068;2023-05-21T13:30:12;69.85;;;57.28;;
3811;SDS011;1921;49.368;11.068;2023-05-21T13:32:39;73.83;;;57.33;;
3811;SDS011;1921;49.368;11.068;2023-05-21T13:35:06;72.15;;;56.13;;
3811;SDS011;1921;49.368;11.068;2023-05-21T13:37:33;74.72;;;57.28;;
3811;SDS011;1921;49.368;11.068;2023-05-21T13:40:03;72.75;;;56.45;;
3811;SDS011;1921;49.368;11.068;2023-05-21T13:42:31;71.78;;;57.00;;
3811;SDS011;1921;49.368;11.068;2023-05-21T13:44:58;69.90;;;55.50;;
3811;SDS011;1921;49.368;11.068;2023-05-21T13:47:23;69.78;;;56.45;;
3811;SDS011;1921;49.368;11.068;2023-05-21T13:49:49;73.57;;;56.38;;
3811;SDS011;1921;49.368;11.068;2023-05-21T13:52:16;71.38;;;57.08;;
3811;SDS011;1921;49.368;11.068;2023-05-21T13:54:42;69.65;;;55.83;;
3811;SDS011;1921;49.368;11.068;2023-05-21T13:57:08;70.28;;;56.47;;
3811;SDS011;1921;49.368;11.068;2023-05-21T13:59:34;71.03;;;56.05;;
3811;SDS011;1921;49.368;11.068;2023-05-21T14:01:59;70.43;;;56.38;;
3811;SDS011;1921;49.368;11.068;2023-05-21T14:04:25;68.23;;;55.47;;
3811;SDS011;1921;49.368;11.068;2023-05-21T14:06:51;72.97;;;57.65;;
3811;SDS011;1921;49.368;11.068;2023-05-21T14:09:17;68.10;;;55.33;;
3811;SDS011;1921;49.368;11.068;2023-05-21T14:11:43;69.97;;;56.40;;
3811;SDS011;1921;49.368;11.068;2023-05-21T14:14:09;71.53;;;57.03;;
3811;SDS011;1921;49.368;11.068;2023-05-21T14:16:35;69.30;;;56.00;;
3811;SDS011;1921;49.368;11.068;2023-05-21T14:19:01;70.63;;;56.40;;
3811;SDS011;1921;49.368;11.068;2023-05-21T14:21:27;71.30;;;56.97;;
3811;SDS011;1921;49.368;11.068;2023-05-21T14:23:53;69.10;;;56.00;;
3811;SDS011;1921;49.368;11.068;2023-05-21T14:26:19;72.45;;;57.05;;
3811;SDS011;1921;49.368;11.068;2023-05-21T14:28:45;73.22;;;57.55;;
3811;SDS011;1921;49.368;11.068;2023-05-21T14:31:11;75.13;;;57.70;;
3811;SDS011;1921;49.368;11.068;2023-05-21T14:33:36;75.38;;;57.22;;
3811;SDS011;1921;49.368;11.068;2023-05-21T14:36:03;72.82;;;56.88;;
3811;SDS011;1921;49.368;11.068;2023-05-21T14:38:29;73.07;;;56.25;;
3811;SDS011;1921;49.368;11.068;2023-05-21T14:40:55;74.07;;;57.28;;
3811;SDS011;1921;49.368;11.068;2023-05-21T14:43:21;71.07;;;56.47;;
3811;SDS011;1921;49.368;11.068;2023-05-21T14:45:50;77.22;;;57.38;;
3811;SDS011;1921;49.368;11.068;2023-05-21T14:48:16;73.38;;;57.13;;
3811;SDS011;1921;49.368;11.068;2023-05-21T14:50:46;76.07;;;57.08;;
3811;SDS011;1921;49.368;11.068;2023-05-21T14:53:13;70.75;;;57.20;;
3811;SDS011;1921;49.368;11.068;2023-05-21T14:55:39;71.70;;;56.63;;
3811;SDS011;1921;49.368;11.068;2023-05-21T14:58:04;71.93;;;56.90;;
3811;SDS011;1921;49.368;11.068;2023-05-21T15:00:31;73.82;;;57.25;;
3811;SDS011;1921;49.368;11.068;2023-05-21T15:02:58;72.97;;;56.85;;
3811;SDS011;1921;49.368;11.068;2023-05-21T15:05:24;72.15;;;56.65;;
3811;SDS011;1921;49.368;11.068;2023-05-21T15:07:52;72.90;;;57.38;;